Frankfort, MI (49635)

1:09 AM EST on February 14, 2016 (GMT -0500)
Frankfort | | Change Station
CLOSE
Current Station
Personal Weather Station
Location: Frankfort, MI
Elevation: 587 ft
Nearby Weather Stations

Elev 587 ft 44.63 °N, 86.24 °W | Updated 12 minutes ago

Overcast
Overcast
12.7 °F
Feels Like 4 °F
N
5.3
Wind Variable Wind from East

Today
High -- | Low -- °F
--% Chance of Precip.
Yesterday
High -- | Low -- °F
Precip. -- in
Pressure 30.43 in
Visibility 10.0 miles
Clouds Overcast 3600 ft
Windchill 4 °F
Dew Point 5 °F
Humidity 72%
Rainfall 0.00 in
Snow Depth Not available.
7:47 AM 6:11 PM
Waxing Crescent, 38% visible
METAR KFKS 140553Z AUTO 13003KT 10SM OVC036 M11/M16 A3043 RMK AO2 T11061156 11095 21106 410951124
Pressure 30.43 in
Visibility 10.0 miles
Clouds Overcast 3600 ft
Windchill 4 °F
Dew Point 5 °F
Humidity 72%
Rainfall 0.00 in
Snow Depth Not available.
7:47 AM 6:11 PM
Waxing Crescent, 38% visible
METAR KFKS 140553Z AUTO 13003KT 10SM OVC036 M11/M16 A3043 RMK AO2 T11061156 11095 21106 410951124

10-Day Weather Forecast

Almanac

Astronomy

Feb. 14, 2016 Rise Set
Actual Time
Civil Twilight
Nautical Twilight
Astronomical Twilight
Moon
Length of Visible Light
Length of Day
Tomorrow will be .
, % of the Moon is Illuminated

Today's Extremes

State Highs State Lows

Community

WunderPhotos

Upload Photos

1,892,752 photos uploaded!

WunderBlog® & News

Nearby

Air Quality

  Air Quality AQ Index Pollutant
Not available.

Snow Depth

Station Depth Elevation

Earthquake Activity

City Distance Mag. Time & Date
Minimum magnitude displayed is 2.5.

Coastal Water Temperatures

Place Temperature

Stations

Nearby Weather Stations

Station Location Temp. Windchill Dew Point Humidity Wind Precip. Elev Updated Type
                   

Watches & Warnings

There are currently no watches in effect.